sensor_id;sensor_type;location;lat;lon;timestamp;temperature;humidity
13982;DHT22;7065;50.880;5.502;2023-07-28T00:02:10;17.10;99.90
13982;DHT22;7065;50.880;5.502;2023-07-28T00:04:36;17.10;99.90
13982;DHT22;7065;50.880;5.502;2023-07-28T00:07:03;17.10;99.90
13982;DHT22;7065;50.880;5.502;2023-07-28T00:09:28;17.20;99.90
13982;DHT22;7065;50.880;5.502;2023-07-28T00:11:56;17.20;99.90
13982;DHT22;7065;50.880;5.502;2023-07-28T00:14:22;17.20;99.90
13982;DHT22;7065;50.880;5.502;2023-07-28T00:16:50;17.20;99.90
13982;DHT22;7065;50.880;5.502;2023-07-28T00:19:16;17.20;99.90
13982;DHT22;7065;50.880;5.502;2023-07-28T00:21:42;17.20;99.90
13982;DHT22;7065;50.880;5.502;2023-07-28T00:24:07;17.20;99.90
13982;DHT22;7065;50.880;5.502;2023-07-28T00:26:33;17.20;99.90
13982;DHT22;7065;50.880;5.502;2023-07-28T00:28:59;17.20;99.90
13982;DHT22;7065;50.880;5.502;2023-07-28T00:31:25;17.20;99.90
13982;DHT22;7065;50.880;5.502;2023-07-28T00:33:50;17.30;99.90
13982;DHT22;7065;50.880;5.502;2023-07-28T00:36:16;17.20;99.90
13982;DHT22;7065;50.880;5.502;2023-07-28T00:38:42;17.20;99.90
13982;DHT22;7065;50.880;5.502;2023-07-28T00:41:08;17.30;99.90
13982;DHT22;7065;50.880;5.502;2023-07-28T00:43:33;17.30;99.90
13982;DHT22;7065;50.880;5.502;2023-07-28T00:45:59;17.30;99.90
13982;DHT22;7065;50.880;5.502;2023-07-28T00:48:25;17.30;99.90
13982;DHT22;7065;50.880;5.502;2023-07-28T00:50:52;17.30;99.90
13982;DHT22;7065;50.880;5.502;2023-07-28T00:53:19;17.30;99.90
13982;DHT22;7065;50.880;5.502;2023-07-28T00:55:45;17.30;99.90
13982;DHT22;7065;50.880;5.502;2023-07-28T00:58:11;17.30;99.90
13982;DHT22;7065;50.880;5.502;2023-07-28T01:00:36;17.30;99.90
13982;DHT22;7065;50.880;5.502;2023-07-28T01:03:03;17.30;99.90
13982;DHT22;7065;50.880;5.502;2023-07-28T01:05:39;17.30;99.90
13982;DHT22;7065;50.880;5.502;2023-07-28T01:08:49;17.30;99.90
13982;DHT22;7065;50.880;5.502;2023-07-28T01:11:17;17.30;99.90
13982;DHT22;7065;50.880;5.502;2023-07-28T01:13:43;17.30;99.90
13982;DHT22;7065;50.880;5.502;2023-07-28T01:16:08;17.30;99.90
13982;DHT22;7065;50.880;5.502;2023-07-28T01:18:35;17.30;99.90
13982;DHT22;7065;50.880;5.502;2023-07-28T01:21:03;17.30;99.90
13982;DHT22;7065;50.880;5.502;2023-07-28T01:23:37;17.30;99.90
13982;DHT22;7065;50.880;5.502;2023-07-28T01:26:11;17.30;99.90
13982;DHT22;7065;50.880;5.502;2023-07-28T01:28:39;17.30;99.90
13982;DHT22;7065;50.880;5.502;2023-07-28T01:31:06;17.30;99.90
13982;DHT22;7065;50.880;5.502;2023-07-28T01:33:32;17.30;99.90
13982;DHT22;7065;50.880;5.502;2023-07-28T01:35:58;17.30;99.90
13982;DHT22;7065;50.880;5.502;2023-07-28T01:38:25;17.30;99.90
13982;DHT22;7065;50.880;5.502;2023-07-28T01:40:51;17.30;99.90
13982;DHT22;7065;50.880;5.502;2023-07-28T01:43:17;17.30;99.90
13982;DHT22;7065;50.880;5.502;2023-07-28T01:45:42;17.30;99.90
13982;DHT22;7065;50.880;5.502;2023-07-28T01:48:08;17.30;99.90
13982;DHT22;7065;50.880;5.502;2023-07-28T01:50:35;17.30;99.90
13982;DHT22;7065;50.880;5.502;2023-07-28T01:53:01;17.30;99.90
13982;DHT22;7065;50.880;5.502;2023-07-28T01:55:27;17.30;99.90
13982;DHT22;7065;50.880;5.502;2023-07-28T01:57:58;17.20;99.90
13982;DHT22;7065;50.880;5.502;2023-07-28T02:00:24;17.30;99.90
13982;DHT22;7065;50.880;5.502;2023-07-28T02:02:50;17.20;99.90
13982;DHT22;7065;50.880;5.502;2023-07-28T02:05:16;17.30;99.90
13982;DHT22;7065;50.880;5.502;2023-07-28T02:07:42;17.30;99.90
13982;DHT22;7065;50.880;5.502;2023-07-28T02:10:08;17.30;99.90
13982;DHT22;7065;50.880;5.502;2023-07-28T02:12:36;17.30;99.90
13982;DHT22;7065;50.880;5.502;2023-07-28T02:15:01;17.30;99.90
13982;DHT22;7065;50.880;5.502;2023-07-28T02:17:27;17.30;99.90
13982;DHT22;7065;50.880;5.502;2023-07-28T02:19:53;17.30;99.90
13982;DHT22;7065;50.880;5.502;2023-07-28T02:22:18;17.30;99.90
13982;DHT22;7065;50.880;5.502;2023-07-28T02:24:44;17.30;99.90
13982;DHT22;7065;50.880;5.502;2023-07-28T02:27:10;17.30;99.90
13982;DHT22;7065;50.880;5.502;2023-07-28T02:29:36;17.30;99.90
13982;DHT22;7065;50.880;5.502;2023-07-28T02:32:01;17.30;99.90
13982;DHT22;7065;50.880;5.502;2023-07-28T02:34:27;17.30;99.90
13982;DHT22;7065;50.880;5.502;2023-07-28T02:36:54;17.30;99.90
13982;DHT22;7065;50.880;5.502;2023-07-28T02:39:20;17.30;99.90
13982;DHT22;7065;50.880;5.502;2023-07-28T02:41:46;17.30;99.90
13982;DHT22;7065;50.880;5.502;2023-07-28T02:44:12;17.30;99.90
13982;DHT22;7065;50.880;5.502;2023-07-28T02:46:38;17.30;99.90
13982;DHT22;7065;50.880;5.502;2023-07-28T02:49:03;17.30;99.90
13982;DHT22;7065;50.880;5.502;2023-07-28T02:51:30;17.30;99.90
13982;DHT22;7065;50.880;5.502;2023-07-28T02:53:56;17.30;99.90
13982;DHT22;7065;50.880;5.502;2023-07-28T02:56:21;17.30;99.90
13982;DHT22;7065;50.880;5.502;2023-07-28T02:58:48;17.30;99.90
13982;DHT22;7065;50.880;5.502;2023-07-28T03:01:14;17.30;99.90
13982;DHT22;7065;50.880;5.502;2023-07-28T03:03:40;17.30;99.90
13982;DHT22;7065;50.880;5.502;2023-07-28T03:06:05;17.30;99.90
13982;DHT22;7065;50.880;5.502;2023-07-28T03:08:31;17.30;99.90
13982;DHT22;7065;50.880;5.502;2023-07-28T03:11:00;17.30;99.90
13982;DHT22;7065;50.880;5.502;2023-07-28T03:13:28;17.30;99.90
13982;DHT22;7065;50.880;5.502;2023-07-28T03:15:54;17.30;99.90
13982;DHT22;7065;50.880;5.502;2023-07-28T03:18:20;17.30;99.90
13982;DHT22;7065;50.880;5.502;2023-07-28T03:20:46;17.30;99.90
13982;DHT22;7065;50.880;5.502;2023-07-28T03:23:12;17.30;99.90
13982;DHT22;7065;50.880;5.502;2023-07-28T03:25:38;17.30;99.90
13982;DHT22;7065;50.880;5.502;2023-07-28T03:28:03;17.30;99.90
13982;DHT22;7065;50.880;5.502;2023-07-28T03:30:29;17.30;99.90
13982;DHT22;7065;50.880;5.502;2023-07-28T03:32:55;17.30;99.90
13982;DHT22;7065;50.880;5.502;2023-07-28T03:35:20;17.30;99.90
13982;DHT22;7065;50.880;5.502;2023-07-28T03:37:46;17.30;99.90
13982;DHT22;7065;50.880;5.502;2023-07-28T03:40:12;17.30;99.90
13982;DHT22;7065;50.880;5.502;2023-07-28T03:42:38;17.30;99.90
13982;DHT22;7065;50.880;5.502;2023-07-28T03:45:04;17.30;99.90
13982;DHT22;7065;50.880;5.502;2023-07-28T03:47:30;17.30;99.90
13982;DHT22;7065;50.880;5.502;2023-07-28T03:49:55;17.30;99.90
13982;DHT22;7065;50.880;5.502;2023-07-28T03:52:21;17.40;99.90
13982;DHT22;7065;50.880;5.502;2023-07-28T03:54:46;17.30;99.90
13982;DHT22;7065;50.880;5.502;2023-07-28T03:57:13;17.40;99.90
13982;DHT22;7065;50.880;5.502;2023-07-28T03:59:39;17.30;99.90
13982;DHT22;7065;50.880;5.502;2023-07-28T04:02:04;17.40;99.90
13982;DHT22;7065;50.880;5.502;2023-07-28T04:04:30;17.30;99.90
13982;DHT22;7065;50.880;5.502;2023-07-28T04:06:56;17.30;99.90
13982;DHT22;7065;50.880;5.502;2023-07-28T04:09:22;17.40;99.90
13982;DHT22;7065;50.880;5.502;2023-07-28T04:11:47;17.40;99.90
13982;DHT22;7065;50.880;5.502;2023-07-28T04:14:13;17.40;99.90
13982;DHT22;7065;50.880;5.502;2023-07-28T04:16:40;17.40;99.90
13982;DHT22;7065;50.880;5.502;2023-07-28T04:19:06;17.40;99.90
13982;DHT22;7065;50.880;5.502;2023-07-28T04:21:31;17.40;99.90
13982;DHT22;7065;50.880;5.502;2023-07-28T04:23:57;17.40;99.90
13982;DHT22;7065;50.880;5.502;2023-07-28T04:26:24;17.40;99.90
13982;DHT22;7065;50.880;5.502;2023-07-28T04:28:51;17.40;99.90
13982;DHT22;7065;50.880;5.502;2023-07-28T04:31:17;17.40;99.90
13982;DHT22;7065;50.880;5.502;2023-07-28T04:33:43;17.40;99.90
13982;DHT22;7065;50.880;5.502;2023-07-28T04:36:09;17.40;99.90
13982;DHT22;7065;50.880;5.502;2023-07-28T04:38:36;17.40;99.90
13982;DHT22;7065;50.880;5.502;2023-07-28T04:41:02;17.40;99.90
13982;DHT22;7065;50.880;5.502;2023-07-28T04:43:28;17.40;99.90
13982;DHT22;7065;50.880;5.502;2023-07-28T04:45:53;17.40;99.90
13982;DHT22;7065;50.880;5.502;2023-07-28T04:48:19;17.40;99.90
13982;DHT22;7065;50.880;5.502;2023-07-28T04:50:45;17.50;99.90
13982;DHT22;7065;50.880;5.502;2023-07-28T04:53:11;17.50;99.90
13982;DHT22;7065;50.880;5.502;2023-07-28T04:55:36;17.50;99.90
13982;DHT22;7065;50.880;5.502;2023-07-28T04:58:02;17.50;99.90
13982;DHT22;7065;50.880;5.502;2023-07-28T05:00:28;17.50;99.90
13982;DHT22;7065;50.880;5.502;2023-07-28T05:02:54;17.50;99.90
13982;DHT22;7065;50.880;5.502;2023-07-28T05:05:20;17.50;99.90
13982;DHT22;7065;50.880;5.502;2023-07-28T05:07:45;17.50;99.90
13982;DHT22;7065;50.880;5.502;2023-07-28T05:10:12;17.60;99.90
13982;DHT22;7065;50.880;5.502;2023-07-28T05:12:38;17.60;99.90
13982;DHT22;7065;50.880;5.502;2023-07-28T05:15:04;17.60;99.90
13982;DHT22;7065;50.880;5.502;2023-07-28T05:17:31;17.60;99.90
13982;DHT22;7065;50.880;5.502;2023-07-28T05:19:57;17.60;99.90
13982;DHT22;7065;50.880;5.502;2023-07-28T05:22:22;17.60;99.90
13982;DHT22;7065;50.880;5.502;2023-07-28T05:24:48;17.60;99.90
13982;DHT22;7065;50.880;5.502;2023-07-28T05:27:14;17.60;99.90
13982;DHT22;7065;50.880;5.502;2023-07-28T05:29:40;17.70;99.90
13982;DHT22;7065;50.880;5.502;2023-07-28T05:32:06;17.70;99.90
13982;DHT22;7065;50.880;5.502;2023-07-28T05:34:32;17.70;99.90
13982;DHT22;7065;50.880;5.502;2023-07-28T05:36:57;17.80;99.90
13982;DHT22;7065;50.880;5.502;2023-07-28T05:39:23;17.80;99.90
13982;DHT22;7065;50.880;5.502;2023-07-28T05:41:49;17.80;99.90
13982;DHT22;7065;50.880;5.502;2023-07-28T05:44:14;17.80;99.90
13982;DHT22;7065;50.880;5.502;2023-07-28T05:46:40;17.80;99.90
13982;DHT22;7065;50.880;5.502;2023-07-28T05:49:06;17.90;99.90
13982;DHT22;7065;50.880;5.502;2023-07-28T05:51:32;17.90;99.90
13982;DHT22;7065;50.880;5.502;2023-07-28T05:53:57;17.90;99.90
13982;DHT22;7065;50.880;5.502;2023-07-28T05:56:24;17.90;99.90
13982;DHT22;7065;50.880;5.502;2023-07-28T05:58:50;17.90;99.90
13982;DHT22;7065;50.880;5.502;2023-07-28T06:01:16;17.90;99.90
13982;DHT22;7065;50.880;5.502;2023-07-28T06:03:42;17.90;99.90
13982;DHT22;7065;50.880;5.502;2023-07-28T06:06:08;18.00;99.90
13982;DHT22;7065;50.880;5.502;2023-07-28T06:08:34;18.00;99.90
13982;DHT22;7065;50.880;5.502;2023-07-28T06:11:03;18.00;99.90
13982;DHT22;7065;50.880;5.502;2023-07-28T06:13:29;18.00;99.90
13982;DHT22;7065;50.880;5.502;2023-07-28T06:15:54;18.00;99.90
13982;DHT22;7065;50.880;5.502;2023-07-28T06:18:21;18.00;99.90
13982;DHT22;7065;50.880;5.502;2023-07-28T06:20:48;18.00;99.90
13982;DHT22;7065;50.880;5.502;2023-07-28T06:23:14;18.10;99.90
13982;DHT22;7065;50.880;5.502;2023-07-28T06:25:41;18.10;99.90
13982;DHT22;7065;50.880;5.502;2023-07-28T06:28:12;18.10;99.90
13982;DHT22;7065;50.880;5.502;2023-07-28T06:30:38;18.20;99.90
13982;DHT22;7065;50.880;5.502;2023-07-28T06:33:08;18.20;99.90
13982;DHT22;7065;50.880;5.502;2023-07-28T06:35:34;18.20;99.90
13982;DHT22;7065;50.880;5.502;2023-07-28T06:38:01;18.20;99.90
13982;DHT22;7065;50.880;5.502;2023-07-28T06:40:27;18.10;99.90
13982;DHT22;7065;50.880;5.502;2023-07-28T06:42:53;18.20;99.90
13982;DHT22;7065;50.880;5.502;2023-07-28T06:45:20;18.30;99.90
13982;DHT22;7065;50.880;5.502;2023-07-28T06:47:46;18.30;99.90
13982;DHT22;7065;50.880;5.502;2023-07-28T06:50:12;18.30;99.90
13982;DHT22;7065;50.880;5.502;2023-07-28T06:52:38;18.30;99.90
13982;DHT22;7065;50.880;5.502;2023-07-28T06:55:04;18.40;99.90
13982;DHT22;7065;50.880;5.502;2023-07-28T06:57:30;18.40;99.90
13982;DHT22;7065;50.880;5.502;2023-07-28T06:59:57;18.50;99.90
13982;DHT22;7065;50.880;5.502;2023-07-28T07:02:23;18.60;99.90
13982;DHT22;7065;50.880;5.502;2023-07-28T07:04:48;18.60;99.90
13982;DHT22;7065;50.880;5.502;2023-07-28T07:07:14;18.70;99.90
13982;DHT22;7065;50.880;5.502;2023-07-28T07:09:40;18.70;99.90
13982;DHT22;7065;50.880;5.502;2023-07-28T07:12:08;18.70;99.90
13982;DHT22;7065;50.880;5.502;2023-07-28T07:14:33;18.80;99.90
13982;DHT22;7065;50.880;5.502;2023-07-28T07:17:00;18.80;99.90
13982;DHT22;7065;50.880;5.502;2023-07-28T07:19:28;18.80;99.90
13982;DHT22;7065;50.880;5.502;2023-07-28T07:21:54;18.90;99.90
13982;DHT22;7065;50.880;5.502;2023-07-28T07:24:20;19.00;99.90
13982;DHT22;7065;50.880;5.502;2023-07-28T07:26:46;19.10;99.90
13982;DHT22;7065;50.880;5.502;2023-07-28T07:29:12;19.20;99.90
13982;DHT22;7065;50.880;5.502;2023-07-28T07:31:38;19.10;99.90
13982;DHT22;7065;50.880;5.502;2023-07-28T07:34:04;19.20;99.90
13982;DHT22;7065;50.880;5.502;2023-07-28T07:36:30;19.10;99.90
13982;DHT22;7065;50.880;5.502;2023-07-28T07:38:55;19.10;99.90
13982;DHT22;7065;50.880;5.502;2023-07-28T07:41:22;19.00;99.90
13982;DHT22;7065;50.880;5.502;2023-07-28T07:43:49;19.00;99.90
13982;DHT22;7065;50.880;5.502;2023-07-28T07:46:15;19.00;99.90
13982;DHT22;7065;50.880;5.502;2023-07-28T07:48:41;19.00;99.90
13982;DHT22;7065;50.880;5.502;2023-07-28T07:51:08;19.00;99.90
13982;DHT22;7065;50.880;5.502;2023-07-28T07:53:34;19.10;99.90
13982;DHT22;7065;50.880;5.502;2023-07-28T07:56:05;19.20;99.90
13982;DHT22;7065;50.880;5.502;2023-07-28T07:58:32;19.20;99.90
13982;DHT22;7065;50.880;5.502;2023-07-28T08:00:58;19.30;99.90
13982;DHT22;7065;50.880;5.502;2023-07-28T08:03:24;19.40;99.90
13982;DHT22;7065;50.880;5.502;2023-07-28T08:05:53;19.50;99.90
13982;DHT22;7065;50.880;5.502;2023-07-28T08:08:19;19.60;99.90
13982;DHT22;7065;50.880;5.502;2023-07-28T08:10:48;19.50;99.90
13982;DHT22;7065;50.880;5.502;2023-07-28T08:13:16;19.50;99.90
13982;DHT22;7065;50.880;5.502;2023-07-28T08:15:45;19.50;99.90
13982;DHT22;7065;50.880;5.502;2023-07-28T08:18:12;19.50;99.90
13982;DHT22;7065;50.880;5.502;2023-07-28T08:20:38;19.50;99.90
13982;DHT22;7065;50.880;5.502;2023-07-28T08:23:04;19.60;99.90
13982;DHT22;7065;50.880;5.502;2023-07-28T08:25:30;19.50;99.90
13982;DHT22;7065;50.880;5.502;2023-07-28T08:27:55;19.50;99.90
13982;DHT22;7065;50.880;5.502;2023-07-28T08:30:21;19.50;99.90
13982;DHT22;7065;50.880;5.502;2023-07-28T08:32:47;19.50;99.90
13982;DHT22;7065;50.880;5.502;2023-07-28T08:35:13;19.40;99.90
13982;DHT22;7065;50.880;5.502;2023-07-28T08:37:39;19.60;99.90
13982;DHT22;7065;50.880;5.502;2023-07-28T08:40:05;19.70;99.90
13982;DHT22;7065;50.880;5.502;2023-07-28T08:42:36;19.80;99.90
13982;DHT22;7065;50.880;5.502;2023-07-28T08:45:03;19.80;99.90
13982;DHT22;7065;50.880;5.502;2023-07-28T08:47:30;19.80;99.90
13982;DHT22;7065;50.880;5.502;2023-07-28T08:49:56;19.80;99.90
13982;DHT22;7065;50.880;5.502;2023-07-28T08:52:22;19.90;99.90
13982;DHT22;7065;50.880;5.502;2023-07-28T08:54:49;19.90;99.90
13982;DHT22;7065;50.880;5.502;2023-07-28T08:57:15;20.00;99.90
13982;DHT22;7065;50.880;5.502;2023-07-28T08:59:41;20.10;99.90
13982;DHT22;7065;50.880;5.502;2023-07-28T09:02:15;20.10;99.90
13982;DHT22;7065;50.880;5.502;2023-07-28T09:04:42;20.10;99.90
13982;DHT22;7065;50.880;5.502;2023-07-28T09:07:08;20.10;99.90
13982;DHT22;7065;50.880;5.502;2023-07-28T09:09:34;20.00;99.90
13982;DHT22;7065;50.880;5.502;2023-07-28T09:12:00;20.10;99.90
13982;DHT22;7065;50.880;5.502;2023-07-28T09:14:26;20.30;99.90
13982;DHT22;7065;50.880;5.502;2023-07-28T09:16:53;20.30;99.90
13982;DHT22;7065;50.880;5.502;2023-07-28T09:19:20;20.40;99.90
13982;DHT22;7065;50.880;5.502;2023-07-28T09:21:57;20.50;99.90
13982;DHT22;7065;50.880;5.502;2023-07-28T09:24:33;20.70;99.90
13982;DHT22;7065;50.880;5.502;2023-07-28T09:26:59;20.90;99.90
13982;DHT22;7065;50.880;5.502;2023-07-28T09:29:26;21.00;99.90
13982;DHT22;7065;50.880;5.502;2023-07-28T09:31:53;21.20;99.90
13982;DHT22;7065;50.880;5.502;2023-07-28T09:34:28;21.30;99.90
13982;DHT22;7065;50.880;5.502;2023-07-28T09:36:55;21.30;99.90
13982;DHT22;7065;50.880;5.502;2023-07-28T09:39:21;21.50;99.90
13982;DHT22;7065;50.880;5.502;2023-07-28T09:41:47;21.50;99.90
13982;DHT22;7065;50.880;5.502;2023-07-28T09:44:14;21.50;99.90
13982;DHT22;7065;50.880;5.502;2023-07-28T09:46:53;21.30;99.90
13982;DHT22;7065;50.880;5.502;2023-07-28T09:51:54;21.50;99.90
13982;DHT22;7065;50.880;5.502;2023-07-28T09:54:29;21.40;99.90
13982;DHT22;7065;50.880;5.502;2023-07-28T09:56:59;21.30;99.90
13982;DHT22;7065;50.880;5.502;2023-07-28T09:59:29;21.30;99.90
13982;DHT22;7065;50.880;5.502;2023-07-28T10:01:58;21.40;99.90
13982;DHT22;7065;50.880;5.502;2023-07-28T10:04:25;21.50;99.90
13982;DHT22;7065;50.880;5.502;2023-07-28T10:06:53;21.40;99.90
13982;DHT22;7065;50.880;5.502;2023-07-28T10:09:25;21.40;99.90
13982;DHT22;7065;50.880;5.502;2023-07-28T10:11:51;21.50;99.90
13982;DHT22;7065;50.880;5.502;2023-07-28T10:16:57;21.60;99.90
13982;DHT22;7065;50.880;5.502;2023-07-28T10:19:27;21.60;99.90
13982;DHT22;7065;50.880;5.502;2023-07-28T10:22:07;21.50;99.90
13982;DHT22;7065;50.880;5.502;2023-07-28T10:24:56;21.60;99.90
13982;DHT22;7065;50.880;5.502;2023-07-28T10:27:29;21.70;99.90
13982;DHT22;7065;50.880;5.502;2023-07-28T10:29:59;21.70;99.90
13982;DHT22;7065;50.880;5.502;2023-07-28T10:32:28;21.60;99.90
13982;DHT22;7065;50.880;5.502;2023-07-28T10:35:02;21.60;99.90
13982;DHT22;7065;50.880;5.502;2023-07-28T10:37:32;21.60;99.90
13982;DHT22;7065;50.880;5.502;2023-07-28T10:42:48;21.60;99.90
13982;DHT22;7065;50.880;5.502;2023-07-28T10:45:15;21.70;99.90
13982;DHT22;7065;50.880;5.502;2023-07-28T10:47:41;21.70;99.90
13982;DHT22;7065;50.880;5.502;2023-07-28T10:50:11;21.60;99.90
13982;DHT22;7065;50.880;5.502;2023-07-28T10:52:43;21.50;99.90
13982;DHT22;7065;50.880;5.502;2023-07-28T10:55:17;21.30;99.90
13982;DHT22;7065;50.880;5.502;2023-07-28T10:57:44;21.10;99.90
13982;DHT22;7065;50.880;5.502;2023-07-28T11:00:15;21.00;99.90
13982;DHT22;7065;50.880;5.502;2023-07-28T11:02:45;20.80;99.90
13982;DHT22;7065;50.880;5.502;2023-07-28T11:05:13;20.80;99.90
13982;DHT22;7065;50.880;5.502;2023-07-28T11:07:43;20.70;99.90
13982;DHT22;7065;50.880;5.502;2023-07-28T11:10:13;20.70;99.90
13982;DHT22;7065;50.880;5.502;2023-07-28T11:12:43;20.70;99.90
13982;DHT22;7065;50.880;5.502;2023-07-28T11:15:11;20.70;99.90
13982;DHT22;7065;50.880;5.502;2023-07-28T11:17:42;20.60;99.90
13982;DHT22;7065;50.880;5.502;2023-07-28T11:20:20;20.70;99.90
13982;DHT22;7065;50.880;5.502;2023-07-28T11:22:53;20.80;99.90
13982;DHT22;7065;50.880;5.502;2023-07-28T11:25:18;20.90;99.90
13982;DHT22;7065;50.880;5.502;2023-07-28T11:27:47;21.00;99.90
13982;DHT22;7065;50.880;5.502;2023-07-28T11:30:14;21.00;99.90
13982;DHT22;7065;50.880;5.502;2023-07-28T11:32:43;21.10;99.90
13982;DHT22;7065;50.880;5.502;2023-07-28T11:35:10;21.10;99.90
13982;DHT22;7065;50.880;5.502;2023-07-28T11:37:38;21.10;99.90
13982;DHT22;7065;50.880;5.502;2023-07-28T11:40:06;21.20;99.90
13982;DHT22;7065;50.880;5.502;2023-07-28T11:42:39;21.30;99.90
13982;DHT22;7065;50.880;5.502;2023-07-28T11:45:05;21.40;99.90
13982;DHT22;7065;50.880;5.502;2023-07-28T11:47:32;21.30;99.90
13982;DHT22;7065;50.880;5.502;2023-07-28T11:49:58;21.40;99.90
13982;DHT22;7065;50.880;5.502;2023-07-28T11:52:34;21.40;99.90
13982;DHT22;7065;50.880;5.502;2023-07-28T11:55:05;21.40;99.90
13982;DHT22;7065;50.880;5.502;2023-07-28T11:57:32;21.30;99.90
13982;DHT22;7065;50.880;5.502;2023-07-28T12:00:01;21.10;99.90
13982;DHT22;7065;50.880;5.502;2023-07-28T12:02:31;20.90;99.90
13982;DHT22;7065;50.880;5.502;2023-07-28T12:04:57;20.70;99.90
13982;DHT22;7065;50.880;5.502;2023-07-28T12:07:32;20.60;99.90
13982;DHT22;7065;50.880;5.502;2023-07-28T12:10:06;20.70;99.90
13982;DHT22;7065;50.880;5.502;2023-07-28T12:15:24;20.90;99.90
13982;DHT22;7065;50.880;5.502;2023-07-28T12:20:37;21.20;99.90
13982;DHT22;7065;50.880;5.502;2023-07-28T12:23:04;21.40;99.90
13982;DHT22;7065;50.880;5.502;2023-07-28T12:25:30;21.60;99.90
13982;DHT22;7065;50.880;5.502;2023-07-28T12:27:56;21.80;99.90
13982;DHT22;7065;50.880;5.502;2023-07-28T12:30:21;21.90;99.90
13982;DHT22;7065;50.880;5.502;2023-07-28T12:32:47;22.00;99.90
13982;DHT22;7065;50.880;5.502;2023-07-28T12:35:13;21.80;99.90
13982;DHT22;7065;50.880;5.502;2023-07-28T12:37:40;21.60;99.90
13982;DHT22;7065;50.880;5.502;2023-07-28T12:40:06;21.30;99.90
13982;DHT22;7065;50.880;5.502;2023-07-28T12:42:32;21.10;99.90
13982;DHT22;7065;50.880;5.502;2023-07-28T12:44:58;20.90;99.90
13982;DHT22;7065;50.880;5.502;2023-07-28T12:47:24;20.90;99.90
13982;DHT22;7065;50.880;5.502;2023-07-28T12:49:49;20.80;99.90
13982;DHT22;7065;50.880;5.502;2023-07-28T12:52:15;20.80;99.90
13982;DHT22;7065;50.880;5.502;2023-07-28T12:54:41;20.60;99.90
13982;DHT22;7065;50.880;5.502;2023-07-28T12:57:08;20.50;99.90
13982;DHT22;7065;50.880;5.502;2023-07-28T12:59:36;20.40;99.90
13982;DHT22;7065;50.880;5.502;2023-07-28T13:02:02;20.40;99.90
13982;DHT22;7065;50.880;5.502;2023-07-28T13:04:27;20.30;99.90
13982;DHT22;7065;50.880;5.502;2023-07-28T13:06:54;20.20;99.90
13982;DHT22;7065;50.880;5.502;2023-07-28T13:09:20;20.20;99.90
13982;DHT22;7065;50.880;5.502;2023-07-28T13:11:46;20.20;99.90
13982;DHT22;7065;50.880;5.502;2023-07-28T13:14:11;20.10;99.90
13982;DHT22;7065;50.880;5.502;2023-07-28T13:16:38;20.00;99.90
13982;DHT22;7065;50.880;5.502;2023-07-28T13:19:04;20.00;99.90
13982;DHT22;7065;50.880;5.502;2023-07-28T13:21:31;19.70;99.90
13982;DHT22;7065;50.880;5.502;2023-07-28T13:23:57;19.70;99.90
13982;DHT22;7065;50.880;5.502;2023-07-28T13:26:22;19.80;99.90
13982;DHT22;7065;50.880;5.502;2023-07-28T13:28:48;19.90;99.90
13982;DHT22;7065;50.880;5.502;2023-07-28T13:31:17;20.00;99.90
13982;DHT22;7065;50.880;5.502;2023-07-28T13:33:44;20.20;99.90
13982;DHT22;7065;50.880;5.502;2023-07-28T13:36:11;20.30;99.90
13982;DHT22;7065;50.880;5.502;2023-07-28T13:38:37;20.50;99.90
13982;DHT22;7065;50.880;5.502;2023-07-28T13:41:05;20.80;99.90
13982;DHT22;7065;50.880;5.502;2023-07-28T13:43:34;21.00;99.90
13982;DHT22;7065;50.880;5.502;2023-07-28T13:46:06;21.30;99.90
13982;DHT22;7065;50.880;5.502;2023-07-28T13:48:32;21.50;99.90
13982;DHT22;7065;50.880;5.502;2023-07-28T13:50:58;21.80;99.90
13982;DHT22;7065;50.880;5.502;2023-07-28T13:53:24;21.90;99.90
13982;DHT22;7065;50.880;5.502;2023-07-28T13:55:50;22.00;99.90
13982;DHT22;7065;50.880;5.502;2023-07-28T13:58:15;22.10;99.90
13982;DHT22;7065;50.880;5.502;2023-07-28T14:00:41;22.10;99.90
13982;DHT22;7065;50.880;5.502;2023-07-28T14:03:07;22.20;99.90
13982;DHT22;7065;50.880;5.502;2023-07-28T14:05:33;22.40;99.90
13982;DHT22;7065;50.880;5.502;2023-07-28T14:07:59;22.60;99.90
13982;DHT22;7065;50.880;5.502;2023-07-28T14:10:24;22.70;99.90
13982;DHT22;7065;50.880;5.502;2023-07-28T14:12:50;22.70;99.90
13982;DHT22;7065;50.880;5.502;2023-07-28T14:15:16;22.80;99.90
13982;DHT22;7065;50.880;5.502;2023-07-28T14:17:41;22.90;99.90
13982;DHT22;7065;50.880;5.502;2023-07-28T14:20:07;23.00;99.90
13982;DHT22;7065;50.880;5.502;2023-07-28T14:22:34;23.10;99.90
13982;DHT22;7065;50.880;5.502;2023-07-28T14:25:00;23.30;99.90
13982;DHT22;7065;50.880;5.502;2023-07-28T14:27:26;23.50;99.90
13982;DHT22;7065;50.880;5.502;2023-07-28T14:29:52;23.40;99.90
13982;DHT22;7065;50.880;5.502;2023-07-28T14:32:17;23.30;99.90
13982;DHT22;7065;50.880;5.502;2023-07-28T14:34:43;23.50;99.90
13982;DHT22;7065;50.880;5.502;2023-07-28T14:37:09;23.70;99.90
13982;DHT22;7065;50.880;5.502;2023-07-28T14:39:36;23.80;99.90
13982;DHT22;7065;50.880;5.502;2023-07-28T14:42:03;23.90;99.90
13982;DHT22;7065;50.880;5.502;2023-07-28T14:44:29;23.90;99.90
13982;DHT22;7065;50.880;5.502;2023-07-28T14:46:55;23.90;99.90
13982;DHT22;7065;50.880;5.502;2023-07-28T14:49:20;23.80;99.90
13982;DHT22;7065;50.880;5.502;2023-07-28T14:51:46;24.10;99.90
13982;DHT22;7065;50.880;5.502;2023-07-28T14:54:12;24.10;99.90
13982;DHT22;7065;50.880;5.502;2023-07-28T14:56:38;24.20;99.90
13982;DHT22;7065;50.880;5.502;2023-07-28T14:59:03;24.40;99.90
13982;DHT22;7065;50.880;5.502;2023-07-28T15:01:30;24.50;99.90
13982;DHT22;7065;50.880;5.502;2023-07-28T15:03:56;24.50;99.90
13982;DHT22;7065;50.880;5.502;2023-07-28T15:06:22;24.60;99.90
13982;DHT22;7065;50.880;5.502;2023-07-28T15:08:48;24.70;99.90
13982;DHT22;7065;50.880;5.502;2023-07-28T15:11:14;24.90;99.90
13982;DHT22;7065;50.880;5.502;2023-07-28T15:13:43;24.90;99.90
13982;DHT22;7065;50.880;5.502;2023-07-28T15:16:09;24.90;99.90
13982;DHT22;7065;50.880;5.502;2023-07-28T15:18:36;25.00;99.90
13982;DHT22;7065;50.880;5.502;2023-07-28T15:21:01;25.20;99.90
13982;DHT22;7065;50.880;5.502;2023-07-28T15:23:28;25.30;99.90
13982;DHT22;7065;50.880;5.502;2023-07-28T15:25:53;25.40;99.90
13982;DHT22;7065;50.880;5.502;2023-07-28T15:28:23;25.50;99.90
13982;DHT22;7065;50.880;5.502;2023-07-28T15:30:51;25.60;99.90
13982;DHT22;7065;50.880;5.502;2023-07-28T15:33:18;25.80;99.90
13982;DHT22;7065;50.880;5.502;2023-07-28T15:35:44;25.70;99.90
13982;DHT22;7065;50.880;5.502;2023-07-28T15:38:10;25.60;99.90
13982;DHT22;7065;50.880;5.502;2023-07-28T15:40:36;25.30;99.90
13982;DHT22;7065;50.880;5.502;2023-07-28T15:43:02;25.20;99.90
13982;DHT22;7065;50.880;5.502;2023-07-28T15:45:27;25.20;99.90
13982;DHT22;7065;50.880;5.502;2023-07-28T15:47:53;25.20;99.90
13982;DHT22;7065;50.880;5.502;2023-07-28T15:50:19;25.50;99.90
13982;DHT22;7065;50.880;5.502;2023-07-28T15:52:44;26.50;99.90
13982;DHT22;7065;50.880;5.502;2023-07-28T15:55:11;27.60;99.90
13982;DHT22;7065;50.880;5.502;2023-07-28T15:57:37;28.80;99.90